Time,TemperatureF,DewpointF,PressureIn,WindDirection,WindDirectionDegrees,WindSpeedMPH,WindSpeedGustMPH,Humidity,HourlyPrecipIn,Conditions,Clouds,dailyrainin,SoftwareType,DateUTC
2013-03-05 00:01:00,34.0,32.0,29.91,ENE,74,16.0,21.0,94,0.00,,,0.00,,2013-03-05 06:01:00,
2013-03-05 00:11:00,34.0,32.0,29.91,ENE,74,16.0,21.0,94,0.00,,,0.00,,2013-03-05 06:11:00,
2013-03-05 00:22:00,34.0,33.0,29.91,ENE,71,10.0,18.0,95,0.00,,,0.00,,2013-03-05 06:22:00,
2013-03-05 00:32:00,34.0,33.0,29.91,ENE,66,14.0,24.0,95,0.00,,,0.00,,2013-03-05 06:32:00,
2013-03-05 00:42:00,34.0,33.0,29.91,ENE,66,14.0,24.0,95,0.00,,,0.00,,2013-03-05 06:42:00,
2013-03-05 00:52:00,33.0,32.0,29.91,ENE,70,15.0,21.0,96,0.00,,,0.00,,2013-03-05 06:52:00,
2013-03-05 01:01:00,34.0,33.0,29.91,ENE,68,13.0,18.0,96,0.00,,,0.00,,2013-03-05 07:01:00,
2013-03-05 01:11:00,34.0,33.0,29.91,ENE,68,13.0,18.0,96,0.00,,,0.00,,2013-03-05 07:11:00,
2013-03-05 01:22:00,34.0,33.0,29.90,ENE,67,12.0,20.0,96,0.00,,,0.00,,2013-03-05 07:22:00,
2013-03-05 01:31:00,34.0,33.0,29.90,ENE,72,12.0,17.0,96,0.00,,,0.00,,2013-03-05 07:31:00,
2013-03-05 01:41:00,34.0,33.0,29.90,ENE,72,12.0,17.0,96,0.00,,,0.00,,2013-03-05 07:41:00,
2013-03-05 01:51:00,34.0,33.0,29.89,ENE,63,11.0,17.0,96,0.00,,,0.00,,2013-03-05 07:51:00,
2013-03-05 02:02:00,34.0,33.0,29.89,ENE,60,12.0,17.0,96,0.00,,,0.00,,2013-03-05 08:02:00,
2013-03-05 02:11:00,34.0,33.0,29.89,ENE,60,12.0,17.0,96,0.00,,,0.00,,2013-03-05 08:11:00,
2013-03-05 02:21:00,34.0,33.0,29.88,ENE,64,10.0,15.0,97,0.00,,,0.00,,2013-03-05 08:21:00,
2013-03-05 02:31:00,33.0,32.0,29.87,ENE,59,12.0,16.0,97,0.00,,,0.00,,2013-03-05 08:31:00,
2013-03-05 02:41:00,33.0,32.0,29.87,ENE,59,12.0,16.0,97,0.00,,,0.00,,2013-03-05 08:41:00,
2013-03-05 02:52:00,33.0,32.0,29.87,NE,53,12.0,16.0,97,0.00,,,0.00,,2013-03-05 08:52:00,
2013-03-05 03:01:00,33.0,32.0,29.86,ENE,66,12.0,17.0,97,0.00,,,0.00,,2013-03-05 09:01:00,
2013-03-05 03:11:00,33.0,32.0,29.86,ENE,66,12.0,17.0,97,0.00,,,0.00,,2013-03-05 09:11:00,
2013-03-05 03:21:00,33.0,32.0,29.86,ENE,58,12.0,18.0,97,0.00,,,0.00,,2013-03-05 09:21:00,
2013-03-05 03:31:00,33.0,32.0,29.86,ENE,65,12.0,18.0,97,0.00,,,0.00,,2013-03-05 09:31:00,
2013-03-05 03:42:00,33.0,32.0,29.86,ENE,65,12.0,18.0,97,0.00,,,0.00,,2013-03-05 09:42:00,
2013-03-05 03:52:00,33.0,32.0,29.85,ENE,62,9.0,16.0,97,0.00,,,0.00,,2013-03-05 09:52:00,
2013-03-05 04:01:00,34.0,33.0,29.86,ENE,60,6.0,12.0,97,0.00,,,0.00,,2013-03-05 10:01:00,
2013-03-05 04:11:00,34.0,33.0,29.86,ENE,60,6.0,12.0,97,0.00,,,0.00,,2013-03-05 10:11:00,
2013-03-05 04:21:00,34.0,33.0,29.86,NE,56,8.0,13.0,97,0.00,,,0.00,,2013-03-05 10:21:00,
2013-03-05 04:32:00,34.0,34.0,29.86,ENE,67,6.0,12.0,98,0.00,,,0.00,,2013-03-05 10:32:00,
2013-03-05 04:42:00,34.0,34.0,29.86,ENE,67,6.0,12.0,98,0.00,,,0.00,,2013-03-05 10:42:00,
2013-03-05 04:52:00,33.0,32.0,29.86,ENE,57,7.0,12.0,98,0.00,,,0.00,,2013-03-05 10:52:00,
2013-03-05 05:01:00,33.0,32.0,29.85,ENE,70,7.0,12.0,98,0.00,,,0.00,,2013-03-05 11:01:00,
2013-03-05 05:11:00,33.0,32.0,29.85,ENE,70,7.0,12.0,98,0.00,,,0.00,,2013-03-05 11:11:00,
2013-03-05 05:22:00,33.0,32.0,29.85,ENE,58,8.0,14.0,98,0.00,,,0.00,,2013-03-05 11:22:00,
2013-03-05 05:32:00,33.0,33.0,29.85,NE,54,8.0,14.0,99,0.00,,,0.00,,2013-03-05 11:32:00,
2013-03-05 05:42:00,33.0,33.0,29.85,NE,54,8.0,14.0,99,0.00,,,0.00,,2013-03-05 11:42:00,
2013-03-05 05:52:00,33.0,33.0,29.85,ENE,63,9.0,13.0,99,0.00,,,0.00,,2013-03-05 11:52:00,
2013-03-05 06:02:00,33.0,33.0,29.85,ENE,58,6.0,9.0,99,0.00,,,0.00,,2013-03-05 12:02:00,
2013-03-05 06:12:00,33.0,33.0,29.85,ENE,58,6.0,9.0,99,0.00,,,0.00,,2013-03-05 12:12:00,
2013-03-05 06:22:00,33.0,33.0,29.84,NE,55,8.0,12.0,99,0.00,,,0.00,,2013-03-05 12:22:00,
2013-03-05 06:32:00,33.0,33.0,29.84,NE,45,7.0,12.0,99,0.00,,,0.00,,2013-03-05 12:32:00,
2013-03-05 06:42:00,33.0,33.0,29.84,NE,45,7.0,12.0,99,0.00,,,0.00,,2013-03-05 12:42:00,
2013-03-05 06:52:00,33.0,33.0,29.84,NNE,19,6.0,10.0,99,0.00,,,0.00,,2013-03-05 12:52:00,
2013-03-05 07:02:00,33.0,33.0,29.85,NE,39,5.0,9.0,100,0.00,,,0.00,,2013-03-05 13:02:00,
2013-03-05 07:11:00,33.0,33.0,29.85,NE,39,5.0,9.0,100,0.00,,,0.00,,2013-03-05 13:11:00,
2013-03-05 07:21:00,33.0,33.0,29.85,NNE,29,7.0,9.0,100,0.00,,,0.00,,2013-03-05 13:21:00,
2013-03-05 07:32:00,33.0,33.0,29.85,NNE,24,7.0,9.0,100,0.00,,,0.00,,2013-03-05 13:32:00,
2013-03-05 07:42:00,33.0,33.0,29.85,NNE,24,7.0,9.0,100,0.00,,,0.00,,2013-03-05 13:42:00,
2013-03-05 07:52:00,33.0,33.0,29.85,NE,37,6.0,10.0,100,0.00,,,0.00,,2013-03-05 13:52:00,
2013-03-05 08:02:00,33.0,33.0,29.83,NE,41,8.0,12.0,100,0.00,,,0.00,,2013-03-05 14:02:00,
2013-03-05 08:11:00,33.0,33.0,29.83,NE,41,8.0,12.0,100,0.00,,,0.00,,2013-03-05 14:11:00,
2013-03-05 08:21:00,33.0,33.0,29.84,NNE,22,9.0,12.0,100,0.00,,,0.00,,2013-03-05 14:21:00,
2013-03-05 08:32:00,33.0,33.0,29.84,NNE,32,7.0,9.0,100,0.00,,,0.00,,2013-03-05 14:32:00,
2013-03-05 08:42:00,33.0,33.0,29.84,NNE,32,7.0,9.0,100,0.00,,,0.00,,2013-03-05 14:42:00,
2013-03-05 08:52:00,33.0,33.0,29.84,North,3,7.0,10.0,100,0.00,,,0.00,,2013-03-05 14:52:00,
2013-03-05 09:01:00,33.0,33.0,29.83,NNE,28,8.0,12.0,100,0.00,,,0.00,,2013-03-05 15:01:00,
2013-03-05 09:11:00,33.0,33.0,29.83,NNE,28,8.0,12.0,100,0.00,,,0.00,,2013-03-05 15:11:00,
2013-03-05 09:21:00,33.0,33.0,29.83,NNE,13,6.0,12.0,100,0.00,,,0.00,,2013-03-05 15:21:00,
2013-03-05 09:32:00,33.0,33.0,29.82,NNE,31,7.0,13.0,100,0.00,,,0.00,,2013-03-05 15:32:00,
2013-03-05 09:42:00,33.0,33.0,29.82,NNE,31,7.0,13.0,100,0.00,,,0.00,,2013-03-05 15:42:00,
2013-03-05 09:51:00,33.0,33.0,29.82,NNE,20,6.0,13.0,100,0.00,,,0.00,,2013-03-05 15:51:00,
2013-03-05 10:01:00,33.0,33.0,29.82,NNE,14,6.0,10.0,100,0.00,,,0.00,,2013-03-05 16:01:00,
2013-03-05 10:11:00,33.0,33.0,29.82,NNE,14,6.0,10.0,100,0.00,,,0.00,,2013-03-05 16:11:00,
2013-03-05 10:21:00,33.0,33.0,29.82,North,10,8.0,10.0,100,0.00,,,0.00,,2013-03-05 16:21:00,
2013-03-05 10:32:00,33.0,33.0,29.82,North,9,6.0,8.0,100,0.00,,,0.00,,2013-03-05 16:32:00,
2013-03-05 10:42:00,33.0,33.0,29.82,North,9,6.0,8.0,100,0.00,,,0.00,,2013-03-05 16:42:00,
2013-03-05 10:51:00,33.0,33.0,29.81,North,7,5.0,9.0,100,0.00,,,0.00,,2013-03-05 16:51:00,
2013-03-05 11:01:00,33.0,33.0,29.81,North,350,5.0,7.0,100,0.00,,,0.00,,2013-03-05 17:01:00,
2013-03-05 11:11:00,33.0,33.0,29.81,North,350,5.0,7.0,100,0.00,,,0.00,,2013-03-05 17:11:00,
2013-03-05 11:21:00,33.0,33.0,29.81,NNW,335,3.0,7.0,100,0.00,,,0.00,,2013-03-05 17:21:00,
2013-03-05 11:32:00,33.0,33.0,29.81,WNW,288,7.0,10.0,100,0.01,,,0.01,,2013-03-05 17:32:00,
2013-03-05 11:42:00,33.0,33.0,29.81,WNW,288,7.0,10.0,100,0.01,,,0.01,,2013-03-05 17:42:00,
2013-03-05 11:52:00,33.0,33.0,29.81,WNW,287,6.0,12.0,100,0.01,,,0.01,,2013-03-05 17:52:00,
2013-03-05 12:02:00,33.0,33.0,29.81,WNW,288,10.0,16.0,100,0.01,,,0.01,,2013-03-05 18:02:00,
2013-03-05 12:11:00,33.0,33.0,29.81,WNW,288,10.0,16.0,100,0.01,,,0.01,,2013-03-05 18:11:00,
2013-03-05 12:22:00,33.0,33.0,29.81,WNW,289,9.0,13.0,100,0.02,,,0.02,,2013-03-05 18:22:00,
2013-03-05 12:32:00,33.0,33.0,29.80,WNW,283,10.0,16.0,100,0.03,,,0.04,,2013-03-05 18:32:00,
2013-03-05 12:42:00,33.0,33.0,29.80,WNW,283,10.0,16.0,100,0.03,,,0.04,,2013-03-05 18:42:00,
2013-03-05 12:52:00,33.0,33.0,29.80,West,279,13.0,17.0,100,0.04,,,0.05,,2013-03-05 18:52:00,
2013-03-05 13:01:00,32.0,32.0,29.80,West,276,11.0,18.0,100,0.06,,,0.07,,2013-03-05 19:01:00,
2013-03-05 13:11:00,32.0,32.0,29.80,West,276,11.0,18.0,100,0.06,,,0.07,,2013-03-05 19:11:00,
2013-03-05 13:21:00,32.0,32.0,29.80,West,271,14.0,24.0,100,0.06,,,0.08,,2013-03-05 19:21:00,
2013-03-05 13:32:00,32.0,32.0,29.80,WNW,282,14.0,24.0,100,0.06,,,0.10,,2013-03-05 19:32:00,
2013-03-05 13:42:00,32.0,32.0,29.80,WNW,282,14.0,24.0,100,0.06,,,0.10,,2013-03-05 19:42:00,
2013-03-05 13:51:00,31.0,31.0,29.79,West,270,15.0,24.0,100,0.06,,,0.11,,2013-03-05 19:51:00,
2013-03-05 14:01:00,31.0,31.0,29.80,West,268,16.0,32.0,100,0.05,,,0.12,,2013-03-05 20:01:00,
2013-03-05 14:11:00,31.0,31.0,29.80,West,266,16.0,31.0,100,0.04,,,0.12,,2013-03-05 20:11:00,
2013-03-05 14:21:00,31.0,31.0,29.80,West,266,16.0,31.0,100,0.04,,,0.12,,2013-03-05 20:21:00,
2013-03-05 14:32:00,30.0,30.0,29.80,WSW,257,14.0,30.0,100,0.03,,,0.13,,2013-03-05 20:32:00,
2013-03-05 14:42:00,30.0,30.0,29.80,WSW,257,14.0,30.0,100,0.03,,,0.13,,2013-03-05 20:42:00,
2013-03-05 14:52:00,30.0,30.0,29.81,West,272,19.0,30.0,100,0.02,,,0.13,,2013-03-05 20:52:00,
2013-03-05 15:02:00,29.0,29.0,29.81,West,264,18.0,32.0,100,0.01,,,0.13,,2013-03-05 21:02:00,
2013-03-05 15:11:00,29.0,29.0,29.81,West,264,18.0,32.0,100,0.01,,,0.13,,2013-03-05 21:11:00,
2013-03-05 15:21:00,29.0,29.0,29.82,West,261,19.0,33.0,100,0.01,,,0.13,,2013-03-05 21:21:00,
2013-03-05 15:32:00,29.0,29.0,29.82,West,265,21.0,37.0,100,0.00,,,0.13,,2013-03-05 21:32:00,
2013-03-05 15:42:00,29.0,29.0,29.82,West,265,21.0,37.0,100,0.00,,,0.13,,2013-03-05 21:42:00,
2013-03-05 15:52:00,29.0,29.0,29.82,West,268,18.0,39.0,100,0.00,,,0.13,,2013-03-05 21:52:00,
2013-03-05 16:01:00,29.0,29.0,29.82,West,262,16.0,33.0,100,0.00,,,0.13,,2013-03-05 22:01:00,
2013-03-05 16:11:00,29.0,29.0,29.82,West,262,16.0,33.0,100,0.00,,,0.13,,2013-03-05 22:11:00,
2013-03-05 16:22:00,29.0,29.0,29.83,West,269,19.0,35.0,100,0.00,,,0.13,,2013-03-05 22:22:00,
2013-03-05 16:32:00,29.0,29.0,29.83,West,275,18.0,31.0,100,0.00,,,0.13,,2013-03-05 22:32:00,
2013-03-05 16:41:00,29.0,29.0,29.83,West,275,18.0,31.0,100,0.00,,,0.13,,2013-03-05 22:41:00,
2013-03-05 16:52:00,29.0,29.0,29.83,West,267,18.0,31.0,100,0.00,,,0.13,,2013-03-05 22:52:00,
2013-03-05 17:01:00,29.0,29.0,29.83,West,269,18.0,32.0,100,0.00,,,0.13,,2013-03-05 23:01:00,
2013-03-05 17:11:00,29.0,29.0,29.83,West,269,18.0,32.0,100,0.00,,,0.13,,2013-03-05 23:11:00,
2013-03-05 17:21:00,29.0,29.0,29.84,West,273,17.0,33.0,100,0.00,,,0.13,,2013-03-05 23:21:00,
2013-03-05 17:32:00,29.0,29.0,29.84,West,263,18.0,31.0,100,0.00,,,0.13,,2013-03-05 23:32:00,
2013-03-05 17:42:00,29.0,29.0,29.84,West,263,18.0,31.0,100,0.00,,,0.13,,2013-03-05 23:42:00,
2013-03-05 17:52:00,29.0,29.0,29.84,West,270,16.0,31.0,100,0.00,,,0.13,,2013-03-05 23:52:00,
2013-03-05 18:01:00,29.0,29.0,29.84,West,271,20.0,33.0,100,0.00,,,0.13,,2013-03-06 00:01:00,
2013-03-05 18:11:00,29.0,29.0,29.84,West,271,20.0,33.0,100,0.00,,,0.13,,2013-03-06 00:11:00,
2013-03-05 18:21:00,29.0,29.0,29.85,West,270,18.0,30.0,100,0.00,,,0.13,,2013-03-06 00:21:00,
2013-03-05 18:32:00,29.0,29.0,29.85,West,265,20.0,31.0,100,0.00,,,0.13,,2013-03-06 00:32:00,
2013-03-05 18:42:00,29.0,29.0,29.85,West,265,20.0,31.0,100,0.00,,,0.13,,2013-03-06 00:42:00,
2013-03-05 18:52:00,29.0,29.0,29.86,West,269,17.0,30.0,100,0.00,,,0.13,,2013-03-06 00:52:00,
2013-03-05 19:02:00,30.0,30.0,29.87,WNW,282,16.0,30.0,100,0.00,,,0.13,,2013-03-06 01:02:00,
2013-03-05 19:11:00,30.0,30.0,29.87,WNW,282,16.0,30.0,100,0.00,,,0.13,,2013-03-06 01:11:00,
2013-03-05 19:21:00,30.0,30.0,29.87,West,279,20.0,31.0,100,0.00,,,0.13,,2013-03-06 01:21:00,
2013-03-05 19:32:00,30.0,30.0,29.88,WNW,301,15.0,33.0,100,0.00,,,0.13,,2013-03-06 01:32:00,
2013-03-05 19:42:00,30.0,30.0,29.88,WNW,301,15.0,33.0,100,0.00,,,0.13,,2013-03-06 01:42:00,
2013-03-05 19:51:00,30.0,30.0,29.88,WNW,300,14.0,28.0,100,0.00,,,0.13,,2013-03-06 01:51:00,
2013-03-05 20:01:00,30.0,30.0,29.90,NW,306,18.0,28.0,100,0.00,,,0.13,,2013-03-06 02:01:00,
2013-03-05 20:11:00,30.0,30.0,29.90,NW,306,18.0,28.0,100,0.00,,,0.13,,2013-03-06 02:11:00,
2013-03-05 20:22:00,29.0,29.0,29.90,NW,304,16.0,31.0,100,0.00,,,0.13,,2013-03-06 02:22:00,
2013-03-05 20:32:00,29.0,29.0,29.92,WNW,301,16.0,30.0,100,0.00,,,0.13,,2013-03-06 02:32:00,
2013-03-05 20:42:00,29.0,29.0,29.92,WNW,301,16.0,30.0,100,0.00,,,0.13,,2013-03-06 02:42:00,
2013-03-05 20:52:00,29.0,29.0,29.93,NW,311,17.0,32.0,100,0.00,,,0.13,,2013-03-06 02:52:00,
2013-03-05 21:01:00,28.0,28.0,29.94,NW,314,14.0,29.0,100,0.00,,,0.13,,2013-03-06 03:01:00,
2013-03-05 21:11:00,28.0,28.0,29.94,NW,314,14.0,29.0,100,0.00,,,0.13,,2013-03-06 03:11:00,
2013-03-05 21:22:00,28.0,28.0,29.95,NW,306,16.0,28.0,100,0.00,,,0.13,,2013-03-06 03:22:00,
2013-03-05 21:32:00,28.0,28.0,29.96,WNW,303,17.0,33.0,100,0.00,,,0.13,,2013-03-06 03:32:00,
2013-03-05 21:42:00,28.0,28.0,29.96,WNW,303,17.0,33.0,100,0.00,,,0.13,,2013-03-06 03:42:00,
2013-03-05 21:52:00,28.0,28.0,29.96,NW,315,13.0,33.0,100,0.00,,,0.13,,2013-03-06 03:52:00,
2013-03-05 22:02:00,28.0,28.0,29.97,WNW,293,17.0,28.0,100,0.00,,,0.13,,2013-03-06 04:02:00,
2013-03-05 22:11:00,28.0,28.0,29.97,WNW,293,17.0,28.0,100,0.00,,,0.13,,2013-03-06 04:11:00,
2013-03-05 22:21:00,28.0,28.0,29.97,WNW,293,20.0,31.0,100,0.00,,,0.13,,2013-03-06 04:21:00,
2013-03-05 22:32:00,27.0,27.0,29.98,NW,304,18.0,32.0,100,0.00,,,0.13,,2013-03-06 04:32:00,
2013-03-05 22:41:00,27.0,27.0,29.98,NW,304,18.0,32.0,100,0.00,,,0.13,,2013-03-06 04:41:00,
2013-03-05 22:52:00,27.0,27.0,29.99,NW,304,17.0,32.0,100,0.00,,,0.13,,2013-03-06 04:52:00,
2013-03-05 23:02:00,27.0,27.0,29.99,WNW,293,17.0,30.0,100,0.00,,,0.13,,2013-03-06 05:02:00,
2013-03-05 23:11:00,27.0,27.0,29.99,WNW,293,17.0,30.0,100,0.00,,,0.13,,2013-03-06 05:11:00,
2013-03-05 23:22:00,27.0,27.0,29.99,NW,307,16.0,31.0,100,0.00,,,0.13,,2013-03-06 05:22:00,
2013-03-05 23:32:00,27.0,27.0,30.00,WNW,301,17.0,31.0,100,0.00,,,0.13,,2013-03-06 05:32:00,
2013-03-05 23:42:00,27.0,27.0,30.00,WNW,301,17.0,31.0,100,0.00,,,0.13,,2013-03-06 05:42:00,
2013-03-05 23:52:00,27.0,27.0,30.00,NW,305,20.0,28.0,100,0.00,,,0.13,,2013-03-06 05:52:00,